Latest Weather Observations for Liawenee

IDT60801

Issued at 11:01 am EST Friday 14 May 2021 (issued every 10 minutes, with the page automatically refreshed every 10 minutes)

About weather observations | Map of weather stations | Latest weather observations for TAS | Other Formats
Station Details ID: 096033 Name: LIAWENEE Lat: -41.90 Lon: 146.67 Height: 1057.0 m
Data from the previous 72 hours. | See also: Recent months at Liawenee
Date/Time
EST
Temp
°C
App
Temp
°C
Dew
Point
°C
Rel
Hum
%
Delta-T
°C
Wind Press
QNH
hPa
Press
MSL
hPa
Rain since
9am
mm
Dir  Spd
km/h
Gust
km/h
Spd
kts
Gust
kts
14/11:00am 1.5 - - - - SW 39 54 21 29 1002.1 1002.8 0.0
14/10:30am 1.2 - - - - WSW 33 46 18 25 1002.1 1002.8 0.0
14/10:00am 1.3 - - - - WSW 28 43 15 23 1001.6 1002.3 0.0
14/09:30am 0.5 - - - - SW 19 28 10 15 1001.6 1002.3 0.0
14/09:00am 0.3 - - - - WSW 28 43 15 23 1001.1 1001.8 3.6
14/08:30am 0.0 - - - - W 13 19 7 10 1000.7 1001.4 3.6
14/08:00am 0.0 - - - - W 19 28 10 15 1000.2 1000.9 3.6
14/07:30am -0.8 - - - - W 13 17 7 9 1000.1 1000.8 3.0
14/07:00am -0.9 - - - - W 19 26 10 14 1000.0 1000.7 2.6
14/06:30am -1.0 - - - - W 22 33 12 18 999.9 1000.6 2.6
14/06:00am -1.6 - - - - W 20 28 11 15 999.9 1000.6 2.4
14/05:30am -0.7 - - - - W 24 33 13 18 999.6 1000.2 2.4
14/05:00am -1.0 - - - - W 17 24 9 13 999.7 1000.3 2.4
14/04:30am -0.6 - - - - W 13 17 7 9 999.7 1000.3 2.2
14/04:00am -0.2 - - - - W 15 19 8 10 999.9 1000.6 1.6
14/03:30am -0.1 - - - - W 20 28 11 15 1000.1 1000.8 0.8
14/03:00am 0.3 - - - - WNW 22 32 12 17 1000.2 1000.9 0.8
14/02:30am 0.6 - - - - NW 20 33 11 18 1000.0 1000.7 0.8
14/02:00am 0.6 - - - - NW 20 35 11 19 1000.6 1001.3 0.8
14/01:30am 0.9 - - - - WNW 28 43 15 23 1001.4 1002.2 0.6
14/01:00am 0.2 - - - - WNW 20 32 11 17 1001.2 1001.9 0.6
14/12:30am -0.3 - - - - WNW 15 26 8 14 1001.6 1002.3 0.6
14/12:00am -1.0 - - - - WSW 17 28 9 15 1002.6 1003.3 0.6
 
Date/Time
EST
Temp
°C
App
Temp
°C
Dew
Point
°C
Rel
Hum
%
Delta-T
°C
Wind Press
QNH
hPa
Press
MSL
hPa
Rain since
9am
mm
Dir  Spd
km/h
Gust
km/h
Spd
kts
Gust
kts
13/11:30pm -1.1 - - - - SW 15 20 8 11 1002.7 1003.4 0.6
13/11:00pm -0.8 - - - - W 19 24 10 13 1003.0 1003.8 0.6
13/10:30pm -0.4 - - - - W 24 32 13 17 1003.2 1004.0 0.6
13/10:00pm 0.0 - - - - WSW 24 35 13 19 1003.4 1004.2 0.6
13/09:30pm 0.0 - - - - WSW 28 37 15 20 1003.7 1004.4 0.6
13/09:00pm 0.3 - - - - WSW 24 32 13 17 1003.4 1004.2 0.6
13/08:30pm 0.1 - - - - WSW 17 20 9 11 1003.4 1004.2 0.6
13/08:00pm 0.0 - - - - WSW 24 33 13 18 1003.6 1004.3 0.6
13/07:30pm 0.2 - - - - WSW 24 30 13 16 1003.4 1004.2 0.6
13/07:00pm 0.5 - - - - WSW 28 39 15 21 1003.4 1004.2 0.6
13/06:30pm 0.8 - - - - WSW 22 30 12 16 1003.1 1003.9 0.6
13/06:00pm 1.0 - - - - WSW 30 43 16 23 1002.7 1003.4 0.6
13/05:30pm 0.8 - - - - SW 26 35 14 19 1002.3 1003.1 0.6
13/05:00pm 1.1 - - - - WSW 26 35 14 19 1002.2 1003.0 0.6
13/04:30pm 1.9 - - - - WSW 33 44 18 24 1001.9 1002.6 0.6
13/04:00pm 3.0 - - - - WSW 28 39 15 21 1002.2 1003.0 0.6
13/03:30pm 2.4 - - - - WSW 32 43 17 23 1002.2 1003.0 0.6
13/03:00pm 3.4 - - - - W 26 33 14 18 1002.1 1002.8 0.6
13/02:30pm 3.5 - - - - W 32 41 17 22 1002.6 1003.3 0.6
13/02:00pm 4.1 - - - - W 37 57 20 31 1002.4 1003.2 0.6
13/01:52pm 4.5 - - - - W 35 57 19 31 1002.2 1003.0 0.6
13/01:30pm 6.7 - - - - WNW 26 43 14 23 1002.0 1002.7 0.2
13/01:00pm 7.0 - - - - NW 24 39 13 21 1001.4 1002.2 0.0
13/12:30pm 6.6 - - - - NNW 24 50 13 27 1001.7 1002.4 0.0
13/12:00pm 6.6 - - - - NNW 28 48 15 26 1002.2 1003.0 0.0
13/11:31am 6.7 - - - - NNW 28 50 15 27 1003.1 1003.9 0.0
13/11:30am 6.9 - - - - NNW 26 50 14 27 1003.1 1003.9 0.0
13/11:00am 6.1 - - - - NW 28 50 15 27 1004.2 1005.0 0.0
13/10:30am 6.2 - - - - NW 30 57 16 31 1004.5 1005.3 0.0
13/10:14am 6.4 - - - - NW 28 65 15 35 1004.5 1005.3 0.0
13/10:00am 6.6 - - - - NW 24 54 13 29 1004.9 1005.7 0.0
13/09:36am 5.9 - - - - NW 28 50 15 27 1005.5 1006.4 0.0
13/09:30am 6.0 - - - - NW 24 44 13 24 1005.7 1006.5 0.0
13/09:00am 5.7 - - - - NNW 19 37 10 20 1006.4 1007.3 1.8
13/08:30am 5.7 - - - - NNW 13 28 7 15 1006.9 1007.7 1.8
13/08:00am 5.7 - - - - NW 15 32 8 17 1007.1 1008.0 1.8
13/07:30am 6.1 - - - - NNW 15 35 8 19 1007.0 1007.8 1.8
13/07:00am 5.8 - - - - NNW 17 28 9 15 1007.9 1008.8 1.8
13/06:30am 6.8 - - - - NNW 20 35 11 19 1008.1 1009.0 1.8
13/06:00am 7.3 - - - - NNW 26 46 14 25 1008.3 1009.2 1.8
13/05:30am 7.3 - - - - NNW 24 48 13 26 1008.5 1009.4 1.8
13/05:00am 7.4 - - - - NNW 28 43 15 23 1009.0 1009.9 1.8
13/04:31am 7.4 - - - - NNW 28 52 15 28 1008.8 1009.7 1.8
13/04:30am 7.3 - - - - NW 26 52 14 28 1008.8 1009.7 1.8
13/04:18am 7.4 - - - - NNW 28 54 15 29 1008.9 1009.8 1.8
13/04:00am 7.8 - - - - NNW 24 43 13 23 1009.1 1010.0 1.8
13/03:30am 8.3 - - - - NNE 15 30 8 16 1010.0 1010.9 1.8
13/03:00am 8.2 - - - - N 19 33 10 18 1010.9 1011.8 1.6
13/02:30am 8.3 - - - - NNE 20 39 11 21 1011.4 1012.4 1.2
13/02:00am 8.6 - - - - NNE 28 48 15 26 1012.0 1013.0 1.0
13/01:55am 8.6 - - - - NNE 28 48 15 26 1012.2 1013.2 1.0
13/01:30am 8.5 - - - - NNE 24 39 13 21 1012.9 1013.9 0.8
13/01:00am 8.2 - - - - N 24 43 13 23 1013.5 1014.5 0.2
13/12:30am 7.9 - - - - N 24 43 13 23 1014.2 1015.2 0.2
13/12:00am 7.9 - - - - NNE 22 44 12 24 1014.7 1015.8 0.0
 
Date/Time
EST
Temp
°C
App
Temp
°C
Dew
Point
°C
Rel
Hum
%
Delta-T
°C
Wind Press
QNH
hPa
Press
MSL
hPa
Rain since
9am
mm
Dir  Spd
km/h
Gust
km/h
Spd
kts
Gust
kts
12/11:45pm 7.7 - - - - N 28 50 15 27 1015.0 1016.0 0.0
12/11:30pm 7.5 - - - - N 26 39 14 21 1015.4 1016.5 0.0
12/11:00pm 7.3 - - - - N 24 43 13 23 1016.1 1017.2 0.0
12/10:30pm 7.1 - - - - N 19 39 10 21 1016.4 1017.5 0.0
12/10:09pm 6.9 - - - - N 28 46 15 25 1016.4 1017.5 0.0
12/10:00pm 6.9 - - - - N 24 41 13 22 1016.6 1017.7 0.0
12/09:36pm 7.0 - - - - NNE 28 48 15 26 1017.3 1018.4 0.0
12/09:30pm 6.8 - - - - NNE 19 39 10 21 1017.5 1018.6 0.0
12/09:00pm 6.4 - - - - N 24 41 13 22 1018.2 1019.3 0.0
12/08:30pm 6.3 - - - - N 17 37 9 20 1018.5 1019.7 0.0
12/08:00pm 6.3 - - - - N 17 30 9 16 1018.7 1019.9 0.0
12/07:30pm 6.1 - - - - N 9 26 5 14 1019.3 1020.5 0.0
12/07:00pm 5.9 - - - - SSE 6 13 3 7 1019.6 1020.8 0.0
12/06:30pm 5.5 - - - - NNE 11 28 6 15 1020.0 1021.1 0.0
12/06:00pm 5.2 - - - - NNW 7 11 4 6 1020.4 1021.6 0.0
12/05:30pm 5.2 - - - - ENE 11 22 6 12 1020.5 1021.7 0.0
12/05:00pm 5.4 - - - - SE 9 20 5 11 1020.5 1021.7 0.0
12/04:30pm 5.8 - - - - S 9 17 5 9 1020.9 1022.2 0.0
12/04:00pm 6.0 - - - - NE 13 32 7 17 1021.4 1022.6 0.0
12/03:30pm 6.0 - - - - NNE 17 35 9 19 1021.8 1023.1 0.0
12/03:00pm 5.9 - - - - NNE 19 30 10 16 1022.2 1023.4 0.0
12/02:30pm 5.9 - - - - NNE 19 30 10 16 1022.6 1023.9 0.0
12/02:00pm 5.9 - - - - NNE 13 20 7 11 1022.7 1024.0 0.0
12/01:30pm 5.7 - - - - NNE 17 32 9 17 1023.2 1024.4 0.0
12/01:00pm 6.2 - - - - NNE 19 33 10 18 1023.5 1024.8 0.0
12/12:30pm 7.3 - - - - NE 19 30 10 16 1024.1 1025.3 0.0
12/12:00pm 7.1 - - - - NNE 20 33 11 18 1024.8 1026.1 0.0
12/11:30am 6.6 - - - - NNE 17 32 9 17 1025.6 1026.9 0.0
12/11:00am 7.0 - - - - N 17 30 9 16 1026.3 1027.6 0.0
12/10:30am 6.1 - - - - NNE 19 28 10 15 1026.6 1028.0 0.0
12/10:00am 5.8 - - - - N 15 26 8 14 1026.8 1028.2 0.0
12/09:30am 5.0 - - - - NNE 17 26 9 14 1027.0 1028.4 0.0
12/09:00am 3.8 - - - - NNE 20 30 11 16 1026.9 1028.3 0.0
12/08:30am 3.5 - - - - NNE 17 28 9 15 1027.0 1028.4 0.0
12/08:00am 2.6 - - - - NNE 20 28 11 15 1027.2 1028.5 0.0
12/07:30am 2.4 - - - - NNE 26 35 14 19 1026.9 1028.3 0.0
12/07:00am 2.2 - - - - NNE 24 35 13 19 1026.7 1028.1 0.0
12/06:30am 1.6 - - - - NNE 13 22 7 12 1026.9 1028.3 0.0
12/06:00am 1.4 - - - - NNE 15 22 8 12 1027.2 1028.5 0.0
12/05:30am 1.4 - - - - NNE 13 19 7 10 1027.3 1028.6 0.0
12/05:00am 1.1 - - - - NNE 13 24 7 13 1027.4 1028.7 0.0
12/04:30am 1.0 - - - - NNE 19 24 10 13 1027.2 1028.5 0.0
12/04:00am 0.5 - - - - NE 13 20 7 11 1027.0 1028.4 0.0
12/03:30am 0.6 - - - - NNE 17 24 9 13 1027.4 1028.7 0.0
12/03:00am 0.9 - - - - NNE 15 20 8 11 1027.5 1028.9 0.0
12/02:30am 0.8 - - - - NNE 13 17 7 9 1027.6 1029.0 0.0
12/02:00am 0.8 - - - - NNE 15 22 8 12 1027.7 1029.1 0.0
12/01:30am 0.6 - - - - NNE 15 20 8 11 1027.7 1029.1 0.0
12/01:00am 0.7 - - - - NNE 13 19 7 10 1027.7 1029.1 0.0
12/12:30am 0.8 - - - - NNE 13 20 7 11 1027.7 1029.1 0.0
12/12:00am 0.5 - - - - NNE 11 15 6 8 1028.0 1029.4 0.0
 
Date/Time
EST
Temp
°C
App
Temp
°C
Dew
Point
°C
Rel
Hum
%
Delta-T
°C
Wind Press
QNH
hPa
Press
MSL
hPa
Rain since
9am
mm
Dir  Spd
km/h
Gust
km/h
Spd
kts
Gust
kts
11/11:30pm 0.6 - - - - NE 15 24 8 13 1028.0 1029.4 0.0
11/11:00pm 0.3 - - - - NE 9 13 5 7 1028.4 1029.8 0.0
11/10:30pm 0.3 - - - - NE 9 15 5 8 1028.6 1030.0 0.0
11/10:00pm -0.1 - - - - NE 11 15 6 8 1028.3 1029.7 0.0
11/09:30pm 0.1 - - - - NE 13 17 7 9 1028.1 1029.5 0.0
11/09:00pm -0.5 - - - - NE 11 20 6 11 1027.9 1029.3 0.0
11/08:30pm 0.2 - - - - ENE 11 15 6 8 1028.0 1029.4 0.0
11/08:00pm 0.3 - - - - E 15 20 8 11 1027.9 1029.3 0.0
11/07:30pm 0.4 - - - - E 11 17 6 9 1027.4 1028.7 0.0
11/07:00pm 0.5 - - - - ENE 13 19 7 10 1027.2 1028.5 0.0
11/06:30pm 0.6 - - - - ENE 11 15 6 8 1026.7 1028.1 0.0
11/06:00pm 0.6 - - - - E 11 15 6 8 1026.3 1027.6 0.0
11/05:30pm 0.8 - - - - E 9 13 5 7 1025.9 1027.3 0.0
11/05:00pm 0.9 - - - - ENE 11 15 6 8 1025.4 1026.7 0.0
11/04:30pm 1.5 - - - - ESE 13 19 7 10 1025.0 1026.4 0.0
11/04:00pm 1.3 - - - - E 13 19 7 10 1024.7 1026.0 0.0
11/03:30pm 1.9 - - - - SE 15 20 8 11 1024.5 1025.8 0.0
11/03:00pm 2.1 - - - - SE 13 26 7 14 1024.2 1025.5 0.0
11/02:30pm 2.2 - - - - SE 17 24 9 13 1023.9 1025.2 0.0
11/02:00pm 1.9 - - - - SSE 17 24 9 13 1023.8 1025.1 0.0
11/01:30pm 2.1 - - - - SE 17 28 9 15 1023.7 1025.0 0.0
11/01:00pm 1.5 - - - - SE 17 26 9 14 1023.6 1024.9 0.0
11/12:30pm 1.8 - - - - ESE 17 24 9 13 1023.6 1024.9 0.0
11/12:00pm 1.6 - - - - ESE 20 30 11 16 1023.4 1024.7 0.0
11/11:30am 0.9 - - - - SSE 20 28 11 15 1023.5 1024.8 0.0

Other formats

Comma delimited format used in spreadsheet applications
http://www.bom.gov.au/fwo/IDT60801/IDT60801.95959.axf

JavaScript Object Notation format (JSON) in row-major order
http://www.bom.gov.au/fwo/IDT60801/IDT60801.95959.json

Data quality

Most of these data are generated automatically and are frequently updated. Quality checks on data are not normally performed. It is possible for incorrect values to appear. Refer to information at About Latest Weather Observations and please check the disclaimer before using these data.